Latest Coastal Weather Observations for Maningrida Airport

IDD60701

Issued at 1:51 am CST Saturday 21 October 2017 (issued every 10 minutes, with the page automatically refreshed every 10 minutes)

About coastal observations | Map of coastal stations | Coastal observations for NT | Marine services | Other Formats
Station Details ID: 014405 Name: MANINGRIDA AIRPORT Lat: -12.06 Lon: 134.23 Height: 28.1 m
Data from the previous 72 hours. | See also: Recent months at Maningrida Airport
Date/Time
CST
Temp
°C
Wind Pressure Rain since
9am
mm
Weather Cloud Vis
km
Sea
Height
m
Swell
Dir  Spd
kts
Gust
kts
hPa Trend Height
m
Period
s
Dir
21/01:30am 25.8 SSE 4 5 1010.9 - 0.0 - - 10 - - - -
21/01:00am 25.9 SSE 3 4 1011.1 - 0.0 - - 10 - - - -
21/12:30am 26.6 SSE 3 4 1011.3 - 0.0 - - 10 - - - -
21/12:00am 27.6 ENE 3 6 1011.6 - 0.0 - Mostly clear 10 - - - -
 
Date/Time
CST
Temp
°C
Wind Pressure Rain since
9am
mm
Weather Cloud Vis
km
Sea
Height
m
Swell
Dir  Spd
kts
Gust
kts
hPa Trend Height
m
Period
s
Dir
20/11:30pm 27.7 ESE 4 5 1012.0 - 0.0 - Partly cloudy 10 - - - -
20/11:00pm 27.9 ENE 5 7 1012.2 - 0.0 - - 10 - - - -
20/10:30pm 27.9 ENE 5 10 1012.1 - 0.0 - - 10 - - - -
20/10:00pm 27.9 ENE 5 7 1012.1 - 0.0 - - 10 - - - -
20/09:30pm 28.0 ENE 5 7 1011.9 - 0.0 - - 10 - - - -
20/09:00pm 28.1 NE 6 8 1011.5 - 0.0 - - 10 - - - -
20/08:30pm 28.2 NE 7 9 1011.2 - 0.0 - - 10 - - - -
20/08:00pm 28.3 NE 8 11 1010.8 - 0.0 - - 10 - - - -
20/07:30pm 28.3 NE 7 10 1010.6 - 0.0 - - 10 - - - -
20/07:00pm 28.5 NE 7 10 1010.2 - 0.0 - - 10 - - - -
20/06:30pm 28.9 NE 9 12 1009.8 - 0.0 - - 10 - - - -
20/06:00pm 29.8 NE 9 15 1009.4 - 0.0 - - 10 - - - -
20/05:30pm 30.8 NE 8 13 1009.4 - 0.0 - - 10 - - - -
20/05:00pm 31.1 NE 9 13 1009.2 - 0.0 - - 10 - - - -
20/04:30pm 31.9 NE 9 15 1009.2 - 0.0 - - 10 - - - -
20/04:00pm 31.1 NE 10 16 1009.5 - 0.0 - Partly cloudy 10 - - - -
20/03:30pm 31.7 NE 12 16 1009.7 - 0.0 - Partly cloudy 10 - - - -
20/03:00pm 32.3 NNE 10 17 1010.0 - 0.0 - - 10 - - - -
20/02:30pm 32.6 NNE 11 18 1010.0 - 0.0 - - 10 - - - -
20/02:00pm 32.6 NNE 12 17 1010.4 - 0.0 - - 10 - - - -
20/01:30pm 33.2 NE 9 16 1010.5 - 0.0 - Partly cloudy 10 - - - -
20/01:00pm 31.2 NNW 13 16 1010.7 - 0.0 - Partly cloudy 10 - - - -
20/12:30pm 32.5 N 10 15 1011.1 - 0.0 - Partly cloudy 10 - - - -
20/12:00pm 32.2 N 10 13 1011.6 - 0.0 - Mostly clear 10 - - - -
20/11:30am 31.1 N 11 15 1012.0 - 0.0 - Partly cloudy 10 - - - -
20/11:00am 32.5 ENE 4 10 1012.4 - 0.0 - - 10 - - - -
20/10:30am 32.0 SE 6 9 1012.6 - 0.0 - Partly cloudy 10 - - - -
20/10:00am 31.2 SSW 4 9 1012.9 - 0.0 - - 10 - - - -
20/09:30am 31.5 SW 5 7 1012.9 - 0.0 - Partly cloudy 10 - - - -
20/09:00am 29.1 SSW 5 7 1012.8 - 0.0 - Mostly cloudy 10 - - - -
20/08:30am 28.3 SSW 5 9 1012.6 - 0.0 - - 10 - - - -
20/08:00am 28.2 SSW 5 8 1012.3 - 0.0 - - 10 - - - -
20/07:30am 26.8 SSW 5 7 1011.8 - 0.0 - - 10 - - - -
20/07:00am 25.0 SSW 4 6 1011.5 - 0.0 - - 10 - - - -
20/06:30am 24.4 SSW 3 5 1011.0 - 0.0 - Partly cloudy 10 - - - -
20/06:00am 24.3 SSW 4 5 1010.7 - 0.0 - Partly cloudy 10 - - - -
20/05:30am 24.3 SSW 4 5 1010.3 - 0.0 - Partly cloudy 10 - - - -
20/05:00am 24.5 SW 4 5 1009.9 - 0.0 - Partly cloudy 10 - - - -
20/04:30am 24.7 SSW 4 6 1009.6 - 0.0 - Partly cloudy 10 - - - -
20/04:00am 24.7 SW 5 7 1009.4 - 0.0 - Partly cloudy 10 - - - -
20/03:30am 25.2 SW 5 7 1009.4 - 0.0 - Partly cloudy 10 - - - -
20/03:00am 25.5 SSW 4 6 1009.3 - 0.0 - Mostly clear 10 - - - -
20/02:30am 26.8 E 3 4 1009.3 - 0.0 - Partly cloudy 10 - - - -
20/02:00am 27.3 ENE 4 7 1009.6 - 0.0 - Partly cloudy 10 - - - -
20/01:30am 27.4 ENE 5 8 1009.8 - 0.0 - Partly cloudy 10 - - - -
20/01:00am 27.5 NE 6 9 1010.2 - 0.0 - Partly cloudy 10 - - - -
20/12:30am 27.5 NE 6 8 1010.6 - 0.0 - Partly cloudy 10 - - - -
20/12:00am 27.5 ENE 6 8 1010.8 - 0.0 - Mostly clear 10 - - - -
 
Date/Time
CST
Temp
°C
Wind Pressure Rain since
9am
mm
Weather Cloud Vis
km
Sea
Height
m
Swell
Dir  Spd
kts
Gust
kts
hPa Trend Height
m
Period
s
Dir
19/11:30pm 27.7 ENE 6 10 1011.0 - 0.0 - - 10 - - - -
19/11:00pm 27.9 NE 7 10 1011.2 - 0.0 - - 10 - - - -
19/10:30pm 27.8 ENE 6 9 1011.3 - 0.0 - - 10 - - - -
19/10:00pm 27.9 NE 5 7 1011.0 - 0.0 - - 10 - - - -
19/09:30pm 27.9 NE 5 7 1010.5 - 0.0 - - 10 - - - -
19/09:00pm 27.9 NE 5 8 1010.1 - 0.0 - - 10 - - - -
19/08:30pm 28.0 NE 4 6 1009.7 - 0.0 - - 10 - - - -
19/08:00pm 28.2 NE 5 7 1009.4 - 0.0 - - 10 - - - -
19/07:30pm 28.4 NNE 5 7 1009.0 - 0.0 - - 10 - - - -
19/07:00pm 28.6 NNE 5 7 1008.4 - 0.0 - - 10 - - - -
19/06:30pm 29.0 NNE 9 12 1008.0 - 0.0 - - 10 - - - -
19/06:00pm 29.8 NNE 8 11 1007.6 - 0.0 - - 10 - - - -
19/05:30pm 30.5 NNE 10 15 1007.2 - 0.0 - - 10 - - - -
19/05:00pm 30.9 NE 11 17 1007.0 - 0.0 - - 10 - - - -
19/04:30pm 31.5 NE 11 18 1006.8 - 0.0 - - 10 - - - -
19/04:00pm 32.4 NNE 11 15 1006.6 - 0.0 - - 10 - - - -
19/03:30pm 32.6 NNE 11 17 1006.5 - 0.0 - - 10 - - - -
19/03:00pm 33.0 NNE 11 14 1006.7 - 0.0 - - 10 - - - -
19/02:30pm 32.8 N 10 14 1006.9 - 0.0 - - 10 - - - -
19/02:00pm 31.8 N 11 15 1007.4 - 0.0 - - 10 - - - -
19/01:30pm 32.2 NNW 11 14 1007.8 - 0.0 - - 10 - - - -
19/01:00pm 32.3 NNW 10 13 1008.4 - 0.0 - - 10 - - - -
19/12:30pm 31.6 NNW 9 13 1009.1 - 0.0 - - 10 - - - -
19/12:00pm 31.2 NNW 9 13 1009.5 - 0.0 - Mostly clear 10 - - - -
19/11:30am 31.4 NW 7 10 1009.8 - 0.0 - - 10 - - - -
19/11:00am 30.9 NNW 7 11 1010.2 - 0.0 - - 10 - - - -
19/10:30am 30.2 NNW 7 10 1010.3 - 0.0 - - 10 - - - -
19/10:00am 30.5 NNW 7 11 1010.4 - 0.0 - - 10 - - - -
19/09:30am 30.3 NW 7 9 1010.5 - 0.0 - - 10 - - - -
19/09:00am 29.9 NNE 6 9 1010.5 - 0.0 - - 10 - - - -
19/08:30am 29.1 SW 3 5 1010.5 - 0.0 - - 10 - - - -
19/08:00am 28.0 SW 3 5 1010.4 - 0.0 - - 10 - - - -
19/07:30am 26.3 SW 4 5 1009.9 - 0.0 - - 10 - - - -
19/07:00am 24.9 SSW 3 4 1009.3 - 0.0 - - 10 - - - -
19/06:30am 23.2 SSW 4 5 1009.0 - 0.0 - - 10 - - - -
19/06:00am 23.1 SSW 2 4 1008.7 - 0.0 - Mostly clear 10 - - - -
19/05:30am 23.1 SSW 4 5 1008.5 - 0.0 - - 10 - - - -
19/05:00am 23.1 SSW 4 5 1008.1 - 0.0 - - 10 - - - -
19/04:30am 23.3 SSW 4 5 1007.9 - 0.0 - - 10 - - - -
19/04:00am 23.1 SSW 3 4 1007.6 - 0.0 - - 10 - - - -
19/03:30am 23.1 SSW 3 5 1007.5 - 0.0 - - 10 - - - -
19/03:00am 23.6 S 3 5 1007.6 - 0.0 - Mostly clear 10 - - - -
19/02:30am 23.8 CALM 0 0 1007.8 - 0.0 - - 10 - - - -
19/02:00am 23.6 SSE 2 3 1008.0 - 0.0 - Partly cloudy 10 - - - -
19/01:30am 23.6 SSE 3 4 1008.3 - 0.0 - - 10 - - - -
19/01:00am 24.0 SE 4 5 1008.9 - 0.0 - - 10 - - - -
19/12:30am 24.2 NE 2 3 1009.3 - 0.0 - Partly cloudy 10 - - - -
19/12:00am 24.5 NE 1 3 1009.9 - 0.0 - Cloudy 10 - - - -
 
Date/Time
CST
Temp
°C
Wind Pressure Rain since
9am
mm
Weather Cloud Vis
km
Sea
Height
m
Swell
Dir  Spd
kts
Gust
kts
hPa Trend Height
m
Period
s
Dir
18/11:30pm 24.4 NE 5 9 1010.1 - 0.0 - Partly cloudy 10 - - - -
18/11:00pm 24.1 NE 12 19 1010.6 - 0.0 - Partly cloudy 10 - - - -
18/10:30pm 25.7 NE 12 19 1010.5 - 0.0 - Partly cloudy 10 - - - -
18/10:00pm 28.4 NNE 7 10 1009.9 - 0.0 - Partly cloudy 10 - - - -
18/09:30pm 28.5 NNE 7 10 1009.5 - 0.0 - Partly cloudy 10 - - - -
18/09:00pm 28.6 N 8 10 1009.2 - 0.0 - Cloudy 10 - - - -
18/08:30pm 28.6 N 9 11 1008.5 - 0.0 - Partly cloudy 10 - - - -
18/08:00pm 28.4 N 8 10 1007.9 - 0.0 - Partly cloudy 10 - - - -
18/07:30pm 28.5 N 9 13 1007.3 - 0.0 - - 10 - - - -
18/07:00pm 28.6 N 11 13 1006.9 - 0.0 - - 10 - - - -
18/06:30pm 28.7 NNE 10 14 1006.5 - 0.0 - - 10 - - - -
18/06:00pm 29.0 NNE 10 13 1006.0 - 0.0 - - 10 - - - -
18/05:30pm 29.3 NNE 10 13 1005.6 - 0.0 - - 10 - - - -
18/05:00pm 30.0 NNE 11 14 1005.4 - 0.0 - - 10 - - - -
18/04:30pm 30.5 NNE 11 15 1005.3 - 0.0 - - 10 - - - -
18/04:00pm 30.6 NNE 11 15 1005.4 - 0.0 - - 10 - - - -
18/03:30pm 30.2 NE 9 12 1005.7 - 0.0 - - 10 - - - -
18/03:00pm 31.3 NNE 12 15 1006.0 - 0.0 - Mostly clear 10 - - - -
18/02:30pm 31.4 N 11 16 1006.1 - 0.0 - Partly cloudy 10 - - - -
18/02:00pm 32.0 NNE 9 15 1006.4 - 0.0 - - 10 - - - -
18/01:30pm 32.1 N 11 15 1007.0 - 0.0 - - 10 - - - -
18/01:00pm 31.5 N 11 15 1007.4 - 0.0 - - 10 - - - -
18/12:30pm 31.4 N 11 14 1007.9 - 0.0 - - 10 - - - -
18/12:00pm 30.8 N 10 13 1008.4 - 0.0 - Mostly clear 10 - - - -
18/11:30am 30.8 N 9 14 1009.1 - 0.0 - Partly cloudy 10 - - - -
18/11:00am 31.2 NNE 8 11 1009.6 - 0.0 - Partly cloudy 10 - - - -
18/10:30am 29.7 NNE 6 10 1010.1 - 0.0 - Partly cloudy 10 - - - -
18/10:00am 29.4 N 6 10 1010.4 - 0.0 - Cloudy 10 - - - -
18/09:30am 28.9 NNE 7 10 1010.5 - 0.0 - Partly cloudy 10 - - - -
18/09:00am 29.4 NE 6 9 1010.4 - 0.0 - - 10 - - - -
18/08:30am 29.6 E 6 8 1010.4 - 0.0 - Partly cloudy 10 - - - -
18/08:00am 29.0 ESE 4 5 1010.2 - 0.0 - Partly cloudy 10 - - - -
18/07:30am 27.8 ESE 4 5 1009.8 - 0.0 - Partly cloudy 10 - - - -
18/07:00am 25.7 SSE 1 4 1009.5 - 0.0 - Partly cloudy 10 - - - -
18/06:30am 25.4 SSW 4 6 1009.1 - 0.0 - Partly cloudy 10 - - - -
18/06:00am 25.5 SSE 3 4 1008.3 - 0.0 - Mostly clear 10 - - - -
18/05:30am 25.8 E 3 4 1007.8 - 0.0 - - 10 - - - -
18/05:00am 26.0 E 3 4 1007.6 - 0.0 - - 10 - - - -
18/04:30am 26.5 ENE 3 4 1007.5 - 0.0 - Partly cloudy 10 - - - -
18/04:00am 26.6 ENE 4 5 1007.1 - 0.0 - Partly cloudy 10 - - - -
18/03:30am 26.3 CALM 0 0 1007.0 - 0.0 - Partly cloudy 10 - - - -
18/03:00am 26.4 CALM 0 0 1007.1 - 0.0 - Partly cloudy 10 - - - -
18/02:30am 27.0 CALM 0 0 1007.3 - 0.0 - Partly cloudy 10 - - - -
18/02:00am 27.5 NE 3 4 1007.4 - 0.0 - - 10 - - - -

Other Formats:

Comma delimited format used in spreadsheet applications
http://www.bom.gov.au/fwo/IDD60701/IDD60701.95142.axf

JavaScript Object Notation format (JSON) in row-major order
http://www.bom.gov.au/fwo/IDD60701/IDD60701.95142.json